Main page
METAR-TAF:

METAR-TAF

Airports :

Sardar Vallabhbhai Patel International Airport

Ahmedabad, India

latitude: 23-04N, longitude: 072-38E, elevation: 55 m

Current weather observation

The report was made 35 minutes ago, at 23:00 UTC
Wind 3 kt from the East
Temperature 25°C
Humidity 94%
Pressure
Visibility: 4000 m
Scattered clouds at a height of 2000 ft
Broken clouds at a height of 8000 ft
haze

METAR: VAAH 162300Z 10003KT 4000 HZ SCT020 BKN080 25/24 Q998 NOSIG

Time: 05:05 (23:35 UTC)

Forecast

The report was made 3 hours and 35 minutes ago, at 20:00 UTC
Forecast valid from 16 at 21 UTC to 17 at 06 UTC
Wind 6 kt from the Southwest
Visibility: 4000 m
Scattered clouds at a height of 2000 ft
Scattered clouds at a height of 8000 ft
haze
Becoming
from 17 at 01 UTC to 17 at 03 UTC
Visibility: 2000 m
mist
Becoming
from 17 at 04 UTC to 17 at 06 UTC
Visibility: 4000 m
haze

TAF: VAAH 162000Z 1621/1706 22006KT 4000 HZ SCT020 SCT080 BECMG 1701/1703 2000 BR BECMG 1704/1706 4000 HZ

Weather observations and forecasts of more than 4000 airports (METAR and TAF reports).

The available stations are represented by yellow and red dots on the map.

Hover mouse over dot to see the name of the station.

Then click to see weather observations and forecasts.

To change the map : click on the green buttons with a black cross to zoom in, on the green button with a dash to zoom out, or on the green arrows for adjacent maps.


METAR-TAF: